メインページ
METAR-TAF:

METAR-TAF

空港 :

ユマ, アリゾナ州, アメリカ合衆国

緯度: 32-37-25N, 経度: 113-45-50W, 海抜: 64m

現時点の気象観測

当レポートは18分前の01:57(UTC)に作成
西の風 5kt
気温 27°C
湿度 15%
気圧 1014 hPa
視程: 16.1km
晴天

METAR: KNYL 260157Z AUTO 26005KT 10SM CLR 27/M02 A2995 RMK AO2 SLP141 T02671022 $

時間: 19:15 (02:15 UTC)

予報

予報は25日の 21時(UTC)から 26日の 21時(UTC)まで有効
変向風 5kt
視程10km以上
晴天
26日の 0300時(UTC)から
変向風 5kt
視程10km以上
晴天
26日の 15時(UTC)から 26日の 17時(UTC)まで徐々に
変向風 5kt
視程: 2614m
高度15000ftの雲はほとんどない

TAF: KNYL 2521/2621 VRB05KT 9999 SKC QNH3001INS FM260300 VRB05KT 9999 SKC QNH2992INS BECMG 2615/2617 VRB05KT 9999 FEW150 QNH2991INS AUTOMATED SENSOR METWATCH 2523 TIL 2614 T32/2522Z T14/2613Z

4,000以上の空港の気象観測と天気予報(METAR報とTAF報)

利用可能な観測所は地図上に黄色い丸と赤い丸で示す。

丸の上にカーソルを重ねると観測所名を参照できる。

次にクリックすると気象観測と天気予報を参照できる。

マップの切り替え:黒色「×」印の緑ボタンをクリックして拡大、「-」印の緑ボタンをクリックして縮小、緑色の三角印をクリックして隣りの地図に切り替え


METAR-TAF: